sensor_id;sensor_type;location;lat;lon;timestamp;temperature;humidity
66568;DHT22;53422;49.296;6.900;2023-07-20T00:01:36;21.70;49.50
66568;DHT22;53422;49.296;6.900;2023-07-20T00:04:01;21.70;49.50
66568;DHT22;53422;49.296;6.900;2023-07-20T00:06:27;21.70;49.60
66568;DHT22;53422;49.296;6.900;2023-07-20T00:08:56;21.70;49.70
66568;DHT22;53422;49.296;6.900;2023-07-20T00:11:26;21.70;49.70
66568;DHT22;53422;49.296;6.900;2023-07-20T00:13:52;21.60;49.80
66568;DHT22;53422;49.296;6.900;2023-07-20T00:16:17;21.60;50.80
66568;DHT22;53422;49.296;6.900;2023-07-20T00:18:43;21.60;49.60
66568;DHT22;53422;49.296;6.900;2023-07-20T00:21:09;21.60;49.90
66568;DHT22;53422;49.296;6.900;2023-07-20T00:23:34;21.50;50.00
66568;DHT22;53422;49.296;6.900;2023-07-20T00:26:00;21.50;50.10
66568;DHT22;53422;49.296;6.900;2023-07-20T00:28:26;21.50;50.20
66568;DHT22;53422;49.296;6.900;2023-07-20T00:30:51;21.50;50.10
66568;DHT22;53422;49.296;6.900;2023-07-20T00:33:18;21.50;50.20
66568;DHT22;53422;49.296;6.900;2023-07-20T00:35:44;21.50;50.30
66568;DHT22;53422;49.296;6.900;2023-07-20T00:38:10;21.50;50.30
66568;DHT22;53422;49.296;6.900;2023-07-20T00:40:39;21.40;50.30
66568;DHT22;53422;49.296;6.900;2023-07-20T00:43:05;21.40;50.50
66568;DHT22;53422;49.296;6.900;2023-07-20T00:45:31;21.30;50.50
66568;DHT22;53422;49.296;6.900;2023-07-20T00:47:57;21.30;50.60
66568;DHT22;53422;49.296;6.900;2023-07-20T00:50:24;21.30;50.70
66568;DHT22;53422;49.296;6.900;2023-07-20T00:52:51;21.30;50.80
66568;DHT22;53422;49.296;6.900;2023-07-20T00:55:18;21.30;50.80
66568;DHT22;53422;49.296;6.900;2023-07-20T00:57:44;21.30;50.80
66568;DHT22;53422;49.296;6.900;2023-07-20T01:00:10;21.20;51.00
66568;DHT22;53422;49.296;6.900;2023-07-20T01:02:36;21.20;51.10
66568;DHT22;53422;49.296;6.900;2023-07-20T01:05:02;21.20;51.20
66568;DHT22;53422;49.296;6.900;2023-07-20T01:07:35;21.20;51.20
66568;DHT22;53422;49.296;6.900;2023-07-20T01:10:40;21.10;51.40
66568;DHT22;53422;49.296;6.900;2023-07-20T01:13:10;21.10;51.50
66568;DHT22;53422;49.296;6.900;2023-07-20T01:15:36;21.10;51.60
66568;DHT22;53422;49.296;6.900;2023-07-20T01:18:02;21.10;51.50
66568;DHT22;53422;49.296;6.900;2023-07-20T01:20:31;21.10;51.60
66568;DHT22;53422;49.296;6.900;2023-07-20T01:31:24;21.00;51.90
66568;DHT22;53422;49.296;6.900;2023-07-20T01:33:53;21.00;51.90
66568;DHT22;53422;49.296;6.900;2023-07-20T01:36:19;21.00;52.10
66568;DHT22;53422;49.296;6.900;2023-07-20T01:38:47;21.00;52.10
66568;DHT22;53422;49.296;6.900;2023-07-20T01:41:13;21.00;51.90
66568;DHT22;53422;49.296;6.900;2023-07-20T01:43:40;21.00;52.10
66568;DHT22;53422;49.296;6.900;2023-07-20T01:46:06;21.00;52.30
66568;DHT22;53422;49.296;6.900;2023-07-20T01:48:31;20.90;52.20
66568;DHT22;53422;49.296;6.900;2023-07-20T01:50:57;21.00;52.60
66568;DHT22;53422;49.296;6.900;2023-07-20T01:53:23;21.00;52.60
66568;DHT22;53422;49.296;6.900;2023-07-20T01:55:48;21.00;52.60
66568;DHT22;53422;49.296;6.900;2023-07-20T01:58:14;20.90;52.60
66568;DHT22;53422;49.296;6.900;2023-07-20T02:00:39;20.90;52.70
66568;DHT22;53422;49.296;6.900;2023-07-20T02:03:05;20.90;52.80
66568;DHT22;53422;49.296;6.900;2023-07-20T02:05:31;20.90;52.80
66568;DHT22;53422;49.296;6.900;2023-07-20T02:07:56;20.90;52.90
66568;DHT22;53422;49.296;6.900;2023-07-20T02:10:22;20.90;53.00
66568;DHT22;53422;49.296;6.900;2023-07-20T02:12:47;20.90;53.00
66568;DHT22;53422;49.296;6.900;2023-07-20T02:15:15;20.90;53.10
66568;DHT22;53422;49.296;6.900;2023-07-20T02:17:42;20.80;53.10
66568;DHT22;53422;49.296;6.900;2023-07-20T02:20:09;20.80;53.00
66568;DHT22;53422;49.296;6.900;2023-07-20T02:22:36;20.80;53.30
66568;DHT22;53422;49.296;6.900;2023-07-20T02:25:06;20.80;53.30
66568;DHT22;53422;49.296;6.900;2023-07-20T02:27:35;20.80;53.50
66568;DHT22;53422;49.296;6.900;2023-07-20T02:30:01;20.70;53.50
66568;DHT22;53422;49.296;6.900;2023-07-20T02:32:28;20.70;53.60
66568;DHT22;53422;49.296;6.900;2023-07-20T02:34:53;20.70;53.60
66568;DHT22;53422;49.296;6.900;2023-07-20T02:37:19;20.70;53.60
66568;DHT22;53422;49.296;6.900;2023-07-20T02:39:45;20.70;53.60
66568;DHT22;53422;49.296;6.900;2023-07-20T02:42:10;20.70;53.80
66568;DHT22;53422;49.296;6.900;2023-07-20T02:44:36;20.60;53.80
66568;DHT22;53422;49.296;6.900;2023-07-20T02:47:01;20.60;53.90
66568;DHT22;53422;49.296;6.900;2023-07-20T02:49:27;20.60;53.80
66568;DHT22;53422;49.296;6.900;2023-07-20T02:51:53;20.60;54.00
66568;DHT22;53422;49.296;6.900;2023-07-20T02:54:20;20.60;53.90
66568;DHT22;53422;49.296;6.900;2023-07-20T02:56:46;20.50;54.10
66568;DHT22;53422;49.296;6.900;2023-07-20T02:59:11;20.50;54.20
66568;DHT22;53422;49.296;6.900;2023-07-20T03:01:37;20.50;54.40
66568;DHT22;53422;49.296;6.900;2023-07-20T03:04:03;20.50;54.20
66568;DHT22;53422;49.296;6.900;2023-07-20T03:06:29;20.50;54.30
66568;DHT22;53422;49.296;6.900;2023-07-20T03:08:55;20.50;54.40
66568;DHT22;53422;49.296;6.900;2023-07-20T03:11:20;20.50;54.40
66568;DHT22;53422;49.296;6.900;2023-07-20T03:13:47;20.50;54.50
66568;DHT22;53422;49.296;6.900;2023-07-20T03:16:14;20.50;54.70
66568;DHT22;53422;49.296;6.900;2023-07-20T03:18:44;20.40;54.70
66568;DHT22;53422;49.296;6.900;2023-07-20T03:21:10;20.40;54.70
66568;DHT22;53422;49.296;6.900;2023-07-20T03:23:40;20.40;54.80
66568;DHT22;53422;49.296;6.900;2023-07-20T03:26:06;20.40;54.70
66568;DHT22;53422;49.296;6.900;2023-07-20T03:28:36;20.40;54.80
66568;DHT22;53422;49.296;6.900;2023-07-20T03:31:03;20.30;54.90
66568;DHT22;53422;49.296;6.900;2023-07-20T03:33:29;20.30;55.00
66568;DHT22;53422;49.296;6.900;2023-07-20T03:35:56;20.30;55.30
66568;DHT22;53422;49.296;6.900;2023-07-20T03:38:22;20.30;55.40
66568;DHT22;53422;49.296;6.900;2023-07-20T03:40:55;20.30;55.40
66568;DHT22;53422;49.296;6.900;2023-07-20T03:43:21;20.30;55.30
66568;DHT22;53422;49.296;6.900;2023-07-20T03:45:47;20.20;55.30
66568;DHT22;53422;49.296;6.900;2023-07-20T03:48:15;20.20;55.30
66568;DHT22;53422;49.296;6.900;2023-07-20T03:50:41;20.20;55.50
66568;DHT22;53422;49.296;6.900;2023-07-20T03:53:07;20.20;55.70
66568;DHT22;53422;49.296;6.900;2023-07-20T03:55:32;20.20;55.80
66568;DHT22;53422;49.296;6.900;2023-07-20T03:57:58;20.20;55.70
66568;DHT22;53422;49.296;6.900;2023-07-20T04:00:24;20.20;55.70
66568;DHT22;53422;49.296;6.900;2023-07-20T04:02:49;20.10;55.90
66568;DHT22;53422;49.296;6.900;2023-07-20T04:05:15;20.10;56.10
66568;DHT22;53422;49.296;6.900;2023-07-20T04:07:41;20.10;56.20
66568;DHT22;53422;49.296;6.900;2023-07-20T04:10:07;20.10;56.20
66568;DHT22;53422;49.296;6.900;2023-07-20T04:15:01;20.10;56.40
66568;DHT22;53422;49.296;6.900;2023-07-20T04:17:29;20.10;56.50
66568;DHT22;53422;49.296;6.900;2023-07-20T04:19:54;20.00;56.60
66568;DHT22;53422;49.296;6.900;2023-07-20T04:22:20;20.00;56.40
66568;DHT22;53422;49.296;6.900;2023-07-20T04:24:46;20.00;56.70
66568;DHT22;53422;49.296;6.900;2023-07-20T04:27:12;20.00;56.30
66568;DHT22;53422;49.296;6.900;2023-07-20T04:29:37;20.00;56.40
66568;DHT22;53422;49.296;6.900;2023-07-20T04:32:03;20.00;56.60
66568;DHT22;53422;49.296;6.900;2023-07-20T04:34:29;20.00;56.60
66568;DHT22;53422;49.296;6.900;2023-07-20T04:36:54;20.00;56.70
66568;DHT22;53422;49.296;6.900;2023-07-20T04:39:20;20.00;56.90
66568;DHT22;53422;49.296;6.900;2023-07-20T04:41:45;20.00;56.90
66568;DHT22;53422;49.296;6.900;2023-07-20T04:44:12;20.00;57.00
66568;DHT22;53422;49.296;6.900;2023-07-20T04:46:39;20.10;57.30
66568;DHT22;53422;49.296;6.900;2023-07-20T04:49:05;20.10;56.80
66568;DHT22;53422;49.296;6.900;2023-07-20T04:51:31;20.10;56.90
66568;DHT22;53422;49.296;6.900;2023-07-20T04:53:57;20.20;57.40
66568;DHT22;53422;49.296;6.900;2023-07-20T04:56:23;20.20;57.00
66568;DHT22;53422;49.296;6.900;2023-07-20T04:58:49;20.20;57.10
66568;DHT22;53422;49.296;6.900;2023-07-20T05:01:14;20.20;57.90
66568;DHT22;53422;49.296;6.900;2023-07-20T05:03:40;20.30;57.60
66568;DHT22;53422;49.296;6.900;2023-07-20T05:06:05;20.30;58.20
66568;DHT22;53422;49.296;6.900;2023-07-20T05:08:31;20.40;59.00
66568;DHT22;53422;49.296;6.900;2023-07-20T05:10:56;20.40;58.50
66568;DHT22;53422;49.296;6.900;2023-07-20T05:13:23;20.40;57.80
66568;DHT22;53422;49.296;6.900;2023-07-20T05:15:51;20.40;57.90
66568;DHT22;53422;49.296;6.900;2023-07-20T05:18:18;20.40;58.00
66568;DHT22;53422;49.296;6.900;2023-07-20T05:20:46;20.50;58.10
66568;DHT22;53422;49.296;6.900;2023-07-20T05:23:12;20.50;58.20
66568;DHT22;53422;49.296;6.900;2023-07-20T05:25:38;20.60;59.20
66568;DHT22;53422;49.296;6.900;2023-07-20T05:28:03;20.60;58.40
66568;DHT22;53422;49.296;6.900;2023-07-20T05:30:29;20.60;58.70
66568;DHT22;53422;49.296;6.900;2023-07-20T05:32:55;20.70;58.60
66568;DHT22;53422;49.296;6.900;2023-07-20T05:35:20;20.70;58.30
66568;DHT22;53422;49.296;6.900;2023-07-20T05:37:46;20.80;59.30
66568;DHT22;53422;49.296;6.900;2023-07-20T05:40:12;20.80;58.40
66568;DHT22;53422;49.296;6.900;2023-07-20T05:42:38;20.80;58.40
66568;DHT22;53422;49.296;6.900;2023-07-20T05:45:05;20.90;58.60
66568;DHT22;53422;49.296;6.900;2023-07-20T05:47:30;20.90;58.50
66568;DHT22;53422;49.296;6.900;2023-07-20T05:49:57;20.90;58.50
66568;DHT22;53422;49.296;6.900;2023-07-20T05:52:23;20.90;58.60
66568;DHT22;53422;49.296;6.900;2023-07-20T05:54:48;21.00;58.80
66568;DHT22;53422;49.296;6.900;2023-07-20T05:57:14;21.00;58.70
66568;DHT22;53422;49.296;6.900;2023-07-20T05:59:39;21.10;58.60
66568;DHT22;53422;49.296;6.900;2023-07-20T06:02:09;21.10;58.40
66568;DHT22;53422;49.296;6.900;2023-07-20T06:04:35;21.10;58.40
66568;DHT22;53422;49.296;6.900;2023-07-20T06:07:00;21.20;58.40
66568;DHT22;53422;49.296;6.900;2023-07-20T06:09:26;21.20;58.20
66568;DHT22;53422;49.296;6.900;2023-07-20T06:11:53;21.30;58.30
66568;DHT22;53422;49.296;6.900;2023-07-20T06:14:18;21.30;58.20
66568;DHT22;53422;49.296;6.900;2023-07-20T06:16:44;21.30;57.90
66568;DHT22;53422;49.296;6.900;2023-07-20T06:19:10;21.40;57.90
66568;DHT22;53422;49.296;6.900;2023-07-20T06:21:39;21.40;58.10
66568;DHT22;53422;49.296;6.900;2023-07-20T06:24:04;21.50;57.70
66568;DHT22;53422;49.296;6.900;2023-07-20T06:26:30;21.50;57.50
66568;DHT22;53422;49.296;6.900;2023-07-20T06:28:56;21.50;57.50
66568;DHT22;53422;49.296;6.900;2023-07-20T06:31:22;21.60;57.60
66568;DHT22;53422;49.296;6.900;2023-07-20T06:33:48;21.60;57.50
66568;DHT22;53422;49.296;6.900;2023-07-20T06:36:16;21.60;57.30
66568;DHT22;53422;49.296;6.900;2023-07-20T06:38:41;21.70;57.10
66568;DHT22;53422;49.296;6.900;2023-07-20T06:41:07;21.70;57.30
66568;DHT22;53422;49.296;6.900;2023-07-20T06:43:32;21.70;59.70
66568;DHT22;53422;49.296;6.900;2023-07-20T06:45:58;21.90;58.10
66568;DHT22;53422;49.296;6.900;2023-07-20T06:48:23;21.80;57.10
66568;DHT22;53422;49.296;6.900;2023-07-20T06:50:49;21.90;56.70
66568;DHT22;53422;49.296;6.900;2023-07-20T06:53:15;22.00;56.60
66568;DHT22;53422;49.296;6.900;2023-07-20T06:55:42;22.10;56.20
66568;DHT22;53422;49.296;6.900;2023-07-20T06:58:07;22.20;56.10
66568;DHT22;53422;49.296;6.900;2023-07-20T07:00:33;22.20;56.10
66568;DHT22;53422;49.296;6.900;2023-07-20T07:02:59;22.10;56.20
66568;DHT22;53422;49.296;6.900;2023-07-20T07:05:24;22.40;57.30
66568;DHT22;53422;49.296;6.900;2023-07-20T07:07:50;22.60;54.90
66568;DHT22;53422;49.296;6.900;2023-07-20T07:10:15;22.60;54.90
66568;DHT22;53422;49.296;6.900;2023-07-20T07:12:41;22.60;56.30
66568;DHT22;53422;49.296;6.900;2023-07-20T07:15:07;22.70;54.70
66568;DHT22;53422;49.296;6.900;2023-07-20T07:17:33;22.80;54.80
66568;DHT22;53422;49.296;6.900;2023-07-20T07:19:59;22.90;54.80
66568;DHT22;53422;49.296;6.900;2023-07-20T07:22:24;23.00;54.40
66568;DHT22;53422;49.296;6.900;2023-07-20T07:24:50;23.20;54.10
66568;DHT22;53422;49.296;6.900;2023-07-20T07:27:16;23.10;53.90
66568;DHT22;53422;49.296;6.900;2023-07-20T07:29:42;23.20;53.90
66568;DHT22;53422;49.296;6.900;2023-07-20T07:32:12;23.30;55.00
66568;DHT22;53422;49.296;6.900;2023-07-20T07:34:38;23.40;53.70
66568;DHT22;53422;49.296;6.900;2023-07-20T07:37:07;23.60;53.60
66568;DHT22;53422;49.296;6.900;2023-07-20T07:39:33;23.70;53.00
66568;DHT22;53422;49.296;6.900;2023-07-20T07:41:58;23.70;52.90
66568;DHT22;53422;49.296;6.900;2023-07-20T07:44:24;23.80;52.70
66568;DHT22;53422;49.296;6.900;2023-07-20T07:46:50;23.80;53.40
66568;DHT22;53422;49.296;6.900;2023-07-20T07:49:16;24.00;52.00
66568;DHT22;53422;49.296;6.900;2023-07-20T07:51:44;24.00;52.20
66568;DHT22;53422;49.296;6.900;2023-07-20T07:54:09;24.30;51.80
66568;DHT22;53422;49.296;6.900;2023-07-20T07:56:35;24.40;51.60
66568;DHT22;53422;49.296;6.900;2023-07-20T07:59:00;24.60;50.90
66568;DHT22;53422;49.296;6.900;2023-07-20T08:01:26;24.50;51.20
66568;DHT22;53422;49.296;6.900;2023-07-20T08:03:51;24.60;51.20
66568;DHT22;53422;49.296;6.900;2023-07-20T08:06:17;24.60;51.30
66568;DHT22;53422;49.296;6.900;2023-07-20T08:08:43;24.60;51.10
66568;DHT22;53422;49.296;6.900;2023-07-20T08:11:09;24.70;51.10
66568;DHT22;53422;49.296;6.900;2023-07-20T08:13:35;24.90;50.00
66568;DHT22;53422;49.296;6.900;2023-07-20T08:16:01;24.90;50.70
66568;DHT22;53422;49.296;6.900;2023-07-20T08:18:28;25.10;50.20
66568;DHT22;53422;49.296;6.900;2023-07-20T08:20:56;25.30;49.40
66568;DHT22;53422;49.296;6.900;2023-07-20T08:23:22;25.40;50.00
66568;DHT22;53422;49.296;6.900;2023-07-20T08:25:48;25.40;50.20
66568;DHT22;53422;49.296;6.900;2023-07-20T08:28:14;25.50;49.30
66568;DHT22;53422;49.296;6.900;2023-07-20T08:30:48;25.60;49.50
66568;DHT22;53422;49.296;6.900;2023-07-20T08:33:14;25.70;49.70
66568;DHT22;53422;49.296;6.900;2023-07-20T08:35:41;25.80;48.90
66568;DHT22;53422;49.296;6.900;2023-07-20T08:38:06;25.90;47.60
66568;DHT22;53422;49.296;6.900;2023-07-20T08:40:33;26.00;49.10
66568;DHT22;53422;49.296;6.900;2023-07-20T08:43:00;26.10;49.30
66568;DHT22;53422;49.296;6.900;2023-07-20T08:45:27;26.10;49.70
66568;DHT22;53422;49.296;6.900;2023-07-20T08:47:56;26.10;49.40
66568;DHT22;53422;49.296;6.900;2023-07-20T08:50:25;26.30;48.70
66568;DHT22;53422;49.296;6.900;2023-07-20T08:52:53;26.30;48.10
66568;DHT22;53422;49.296;6.900;2023-07-20T08:55:20;26.10;48.60
66568;DHT22;53422;49.296;6.900;2023-07-20T08:57:50;26.10;48.10
66568;DHT22;53422;49.296;6.900;2023-07-20T09:00:17;26.00;47.80
66568;DHT22;53422;49.296;6.900;2023-07-20T09:02:45;26.20;47.60
66568;DHT22;53422;49.296;6.900;2023-07-20T09:05:11;26.50;47.30
66568;DHT22;53422;49.296;6.900;2023-07-20T09:07:40;26.60;46.10
66568;DHT22;53422;49.296;6.900;2023-07-20T09:10:09;26.70;45.20
66568;DHT22;53422;49.296;6.900;2023-07-20T09:12:40;26.70;46.30
66568;DHT22;53422;49.296;6.900;2023-07-20T09:15:07;26.80;45.60
66568;DHT22;53422;49.296;6.900;2023-07-20T09:17:33;27.00;46.40
66568;DHT22;53422;49.296;6.900;2023-07-20T09:20:02;27.10;46.10
66568;DHT22;53422;49.296;6.900;2023-07-20T09:22:31;27.20;46.30
66568;DHT22;53422;49.296;6.900;2023-07-20T09:24:58;27.20;45.80
66568;DHT22;53422;49.296;6.900;2023-07-20T09:27:35;27.20;45.60
66568;DHT22;53422;49.296;6.900;2023-07-20T09:30:01;27.00;45.00
66568;DHT22;53422;49.296;6.900;2023-07-20T09:32:27;26.90;44.90
66568;DHT22;53422;49.296;6.900;2023-07-20T09:34:53;27.00;44.70
66568;DHT22;53422;49.296;6.900;2023-07-20T09:37:22;27.20;44.10
66568;DHT22;53422;49.296;6.900;2023-07-20T09:39:54;27.40;44.10
66568;DHT22;53422;49.296;6.900;2023-07-20T09:42:21;27.60;43.80
66568;DHT22;53422;49.296;6.900;2023-07-20T09:44:48;27.70;44.30
66568;DHT22;53422;49.296;6.900;2023-07-20T09:47:21;27.70;43.40
66568;DHT22;53422;49.296;6.900;2023-07-20T09:49:47;27.70;44.00
66568;DHT22;53422;49.296;6.900;2023-07-20T09:52:13;27.70;44.10
66568;DHT22;53422;49.296;6.900;2023-07-20T09:54:39;27.90;43.70
66568;DHT22;53422;49.296;6.900;2023-07-20T09:57:08;27.80;43.10
66568;DHT22;53422;49.296;6.900;2023-07-20T09:59:34;27.90;43.30
66568;DHT22;53422;49.296;6.900;2023-07-20T10:02:02;28.00;42.80
66568;DHT22;53422;49.296;6.900;2023-07-20T10:04:29;27.80;42.50
66568;DHT22;53422;49.296;6.900;2023-07-20T10:06:55;27.90;41.10
66568;DHT22;53422;49.296;6.900;2023-07-20T10:09:24;28.00;41.70
66568;DHT22;53422;49.296;6.900;2023-07-20T10:11:52;27.90;41.80
66568;DHT22;53422;49.296;6.900;2023-07-20T10:14:20;28.00;42.00
66568;DHT22;53422;49.296;6.900;2023-07-20T10:16:51;28.00;41.60
66568;DHT22;53422;49.296;6.900;2023-07-20T10:19:23;28.20;40.90
66568;DHT22;53422;49.296;6.900;2023-07-20T10:22:00;28.30;40.80
66568;DHT22;53422;49.296;6.900;2023-07-20T10:24:28;28.10;39.60
66568;DHT22;53422;49.296;6.900;2023-07-20T10:26:55;28.10;40.30
66568;DHT22;53422;49.296;6.900;2023-07-20T10:29:21;28.10;39.60
66568;DHT22;53422;49.296;6.900;2023-07-20T10:31:48;28.20;39.80
66568;DHT22;53422;49.296;6.900;2023-07-20T10:34:14;28.20;40.10
66568;DHT22;53422;49.296;6.900;2023-07-20T10:36:46;28.30;39.80
66568;DHT22;53422;49.296;6.900;2023-07-20T10:39:32;28.40;39.30
66568;DHT22;53422;49.296;6.900;2023-07-20T10:42:11;28.50;39.30
66568;DHT22;53422;49.296;6.900;2023-07-20T10:44:38;28.50;38.30
66568;DHT22;53422;49.296;6.900;2023-07-20T10:47:09;28.60;38.00
66568;DHT22;53422;49.296;6.900;2023-07-20T10:49:35;28.60;37.90
66568;DHT22;53422;49.296;6.900;2023-07-20T10:52:21;28.70;39.60
66568;DHT22;53422;49.296;6.900;2023-07-20T10:54:47;28.70;38.00
66568;DHT22;53422;49.296;6.900;2023-07-20T10:57:30;28.60;38.30
66568;DHT22;53422;49.296;6.900;2023-07-20T11:00:13;28.70;38.30
66568;DHT22;53422;49.296;6.900;2023-07-20T11:02:49;28.80;38.60
66568;DHT22;53422;49.296;6.900;2023-07-20T11:07:59;28.90;37.60
66568;DHT22;53422;49.296;6.900;2023-07-20T11:10:25;28.90;38.00
66568;DHT22;53422;49.296;6.900;2023-07-20T11:13:15;28.90;38.20
66568;DHT22;53422;49.296;6.900;2023-07-20T11:18:25;29.00;38.10
66568;DHT22;53422;49.296;6.900;2023-07-20T11:20:52;29.00;37.50
66568;DHT22;53422;49.296;6.900;2023-07-20T11:23:19;28.80;36.50
66568;DHT22;53422;49.296;6.900;2023-07-20T11:25:45;28.70;37.00
66568;DHT22;53422;49.296;6.900;2023-07-20T11:28:11;29.00;36.70
66568;DHT22;53422;49.296;6.900;2023-07-20T11:30:38;29.10;37.00
66568;DHT22;53422;49.296;6.900;2023-07-20T11:33:08;29.10;37.20
66568;DHT22;53422;49.296;6.900;2023-07-20T11:35:44;29.10;35.60
66568;DHT22;53422;49.296;6.900;2023-07-20T11:38:13;29.30;35.90
66568;DHT22;53422;49.296;6.900;2023-07-20T11:40:46;29.40;36.00
66568;DHT22;53422;49.296;6.900;2023-07-20T11:43:13;29.50;36.30
66568;DHT22;53422;49.296;6.900;2023-07-20T11:45:39;29.50;36.40
66568;DHT22;53422;49.296;6.900;2023-07-20T11:48:05;29.50;36.00
66568;DHT22;53422;49.296;6.900;2023-07-20T11:50:31;29.40;36.80
66568;DHT22;53422;49.296;6.900;2023-07-20T11:52:57;29.50;35.70
66568;DHT22;53422;49.296;6.900;2023-07-20T11:55:23;29.60;35.20
66568;DHT22;53422;49.296;6.900;2023-07-20T12:00:28;29.50;35.70
66568;DHT22;53422;49.296;6.900;2023-07-20T12:02:54;29.40;35.90
66568;DHT22;53422;49.296;6.900;2023-07-20T12:05:19;29.20;36.60
66568;DHT22;53422;49.296;6.900;2023-07-20T12:07:47;29.30;36.20
66568;DHT22;53422;49.296;6.900;2023-07-20T12:10:15;29.50;36.00
66568;DHT22;53422;49.296;6.900;2023-07-20T12:12:42;29.60;35.20
66568;DHT22;53422;49.296;6.900;2023-07-20T12:15:16;29.70;34.20
66568;DHT22;53422;49.296;6.900;2023-07-20T12:17:43;29.80;35.30
66568;DHT22;53422;49.296;6.900;2023-07-20T12:20:10;29.70;34.90
66568;DHT22;53422;49.296;6.900;2023-07-20T12:22:43;29.60;34.30
66568;DHT22;53422;49.296;6.900;2023-07-20T12:25:09;29.60;34.80
66568;DHT22;53422;49.296;6.900;2023-07-20T12:27:38;29.50;34.40
66568;DHT22;53422;49.296;6.900;2023-07-20T12:30:05;29.60;34.40
66568;DHT22;53422;49.296;6.900;2023-07-20T12:32:31;29.60;33.50
66568;DHT22;53422;49.296;6.900;2023-07-20T12:34:57;29.60;33.30
66568;DHT22;53422;49.296;6.900;2023-07-20T12:37:22;29.50;31.80
66568;DHT22;53422;49.296;6.900;2023-07-20T12:39:48;29.60;32.20
66568;DHT22;53422;49.296;6.900;2023-07-20T12:42:14;29.70;32.90
66568;DHT22;53422;49.296;6.900;2023-07-20T12:44:41;29.50;32.60
66568;DHT22;53422;49.296;6.900;2023-07-20T12:47:07;29.60;32.80
66568;DHT22;53422;49.296;6.900;2023-07-20T12:49:33;29.80;32.70
66568;DHT22;53422;49.296;6.900;2023-07-20T12:51:58;30.00;32.00
66568;DHT22;53422;49.296;6.900;2023-07-20T12:54:24;30.10;31.90
66568;DHT22;53422;49.296;6.900;2023-07-20T12:56:49;30.10;32.00
66568;DHT22;53422;49.296;6.900;2023-07-20T12:59:15;30.20;32.50
66568;DHT22;53422;49.296;6.900;2023-07-20T13:01:41;30.30;33.00
66568;DHT22;53422;49.296;6.900;2023-07-20T13:04:08;30.40;31.40
66568;DHT22;53422;49.296;6.900;2023-07-20T13:06:34;30.50;33.20
66568;DHT22;53422;49.296;6.900;2023-07-20T13:09:00;30.50;32.60
66568;DHT22;53422;49.296;6.900;2023-07-20T13:11:26;30.70;31.00
66568;DHT22;53422;49.296;6.900;2023-07-20T13:13:52;30.80;31.50
66568;DHT22;53422;49.296;6.900;2023-07-20T13:16:17;30.90;31.30
66568;DHT22;53422;49.296;6.900;2023-07-20T13:18:43;31.10;32.20
66568;DHT22;53422;49.296;6.900;2023-07-20T13:21:08;31.10;32.30
66568;DHT22;53422;49.296;6.900;2023-07-20T13:23:39;31.10;30.90
66568;DHT22;53422;49.296;6.900;2023-07-20T13:26:05;31.10;31.70
66568;DHT22;53422;49.296;6.900;2023-07-20T13:28:30;31.00;31.90
66568;DHT22;53422;49.296;6.900;2023-07-20T13:30:56;30.90;31.20
66568;DHT22;53422;49.296;6.900;2023-07-20T13:33:21;30.90;31.30
66568;DHT22;53422;49.296;6.900;2023-07-20T13:35:47;30.70;31.40
66568;DHT22;53422;49.296;6.900;2023-07-20T13:38:13;30.70;30.70
66568;DHT22;53422;49.296;6.900;2023-07-20T13:40:38;30.80;30.80
66568;DHT22;53422;49.296;6.900;2023-07-20T13:43:04;30.90;30.50
66568;DHT22;53422;49.296;6.900;2023-07-20T13:45:30;30.80;30.00
66568;DHT22;53422;49.296;6.900;2023-07-20T13:47:55;30.90;30.60
66568;DHT22;53422;49.296;6.900;2023-07-20T13:50:21;30.70;30.00
66568;DHT22;53422;49.296;6.900;2023-07-20T13:52:46;30.60;29.90
66568;DHT22;53422;49.296;6.900;2023-07-20T13:55:12;30.60;30.00
66568;DHT22;53422;49.296;6.900;2023-07-20T13:57:38;30.60;30.60
66568;DHT22;53422;49.296;6.900;2023-07-20T14:00:04;30.70;29.80
66568;DHT22;53422;49.296;6.900;2023-07-20T14:02:33;30.60;30.00
66568;DHT22;53422;49.296;6.900;2023-07-20T14:04:59;30.50;30.80
66568;DHT22;53422;49.296;6.900;2023-07-20T14:07:25;30.50;30.40
66568;DHT22;53422;49.296;6.900;2023-07-20T14:09:53;30.50;30.30
66568;DHT22;53422;49.296;6.900;2023-07-20T14:12:22;30.40;30.60
66568;DHT22;53422;49.296;6.900;2023-07-20T14:14:47;30.30;30.80
66568;DHT22;53422;49.296;6.900;2023-07-20T14:17:13;30.20;29.90
66568;DHT22;53422;49.296;6.900;2023-07-20T14:19:38;30.20;30.70
66568;DHT22;53422;49.296;6.900;2023-07-20T14:22:04;30.20;29.80
66568;DHT22;53422;49.296;6.900;2023-07-20T14:24:30;30.10;30.10
66568;DHT22;53422;49.296;6.900;2023-07-20T14:26:56;30.20;29.60
66568;DHT22;53422;49.296;6.900;2023-07-20T14:29:21;30.30;29.90
66568;DHT22;53422;49.296;6.900;2023-07-20T14:31:47;30.50;30.20
66568;DHT22;53422;49.296;6.900;2023-07-20T14:34:17;30.50;29.80
66568;DHT22;53422;49.296;6.900;2023-07-20T14:36:45;30.50;29.80
66568;DHT22;53422;49.296;6.900;2023-07-20T14:39:10;30.50;31.80
66568;DHT22;53422;49.296;6.900;2023-07-20T14:41:36;30.50;29.70
66568;DHT22;53422;49.296;6.900;2023-07-20T14:44:02;30.50;30.60
66568;DHT22;53422;49.296;6.900;2023-07-20T14:46:28;30.40;30.80
66568;DHT22;53422;49.296;6.900;2023-07-20T14:48:53;30.40;30.60
66568;DHT22;53422;49.296;6.900;2023-07-20T14:51:19;30.40;30.90
66568;DHT22;53422;49.296;6.900;2023-07-20T14:53:45;30.50;30.90
66568;DHT22;53422;49.296;6.900;2023-07-20T14:56:11;30.40;30.00
66568;DHT22;53422;49.296;6.900;2023-07-20T14:58:36;30.30;30.90
66568;DHT22;53422;49.296;6.900;2023-07-20T15:01:03;30.20;31.40
66568;DHT22;53422;49.296;6.900;2023-07-20T15:03:28;30.20;30.60
66568;DHT22;53422;49.296;6.900;2023-07-20T15:05:56;30.10;30.70
66568;DHT22;53422;49.296;6.900;2023-07-20T15:08:22;29.90;30.30
66568;DHT22;53422;49.296;6.900;2023-07-20T15:10:48;29.80;30.10
66568;DHT22;53422;49.296;6.900;2023-07-20T15:13:14;29.80;30.60
66568;DHT22;53422;49.296;6.900;2023-07-20T15:15:40;29.80;30.50
66568;DHT22;53422;49.296;6.900;2023-07-20T15:18:07;29.70;30.00
66568;DHT22;53422;49.296;6.900;2023-07-20T15:20:32;29.80;30.00
66568;DHT22;53422;49.296;6.900;2023-07-20T15:22:58;29.70;29.80
66568;DHT22;53422;49.296;6.900;2023-07-20T15:25:24;29.70;29.70
66568;DHT22;53422;49.296;6.900;2023-07-20T15:27:50;29.80;29.90
66568;DHT22;53422;49.296;6.900;2023-07-20T15:30:16;29.80;29.20
66568;DHT22;53422;49.296;6.900;2023-07-20T15:32:42;29.80;30.50
66568;DHT22;53422;49.296;6.900;2023-07-20T15:35:09;29.70;29.60
66568;DHT22;53422;49.296;6.900;2023-07-20T15:37:35;29.80;29.90
66568;DHT22;53422;49.296;6.900;2023-07-20T15:40:02;29.80;30.50
66568;DHT22;53422;49.296;6.900;2023-07-20T15:42:30;29.80;30.60
66568;DHT22;53422;49.296;6.900;2023-07-20T15:44:56;29.80;30.80
66568;DHT22;53422;49.296;6.900;2023-07-20T15:47:22;29.70;30.40